Terminal Aerodrome Forecast
Issued by NWS Wilmington, NC

Home | Current Version | Previous Version | Text Only | Print | Product List | Glossary On
Versions: 1 2 3 4 5 6 7 8 9 10 11 12 13 14 15 16 17 18 19
000
FTUS42 KILM 231720
TAFFLO
TAF
KFLO 231720Z 2318/2418 25007KT P6SM VCTS FEW040CB
     FM240000 23005KT P6SM -TSRA BKN040CB
     FM240300 20006KT P6SM -SHRA VCTS BKN035CB
     FM240500 21006KT P6SM VCTS BKN030CB=

USA.gov is the U.S. government's official web portal to all federal, state and local government web resources and services.